BAW255 ENGM-EGLL
Flight info
| Callsign | BAW255 |
|---|---|
| Flight time | 1h 55m |
| Altitude | 38000 |
| Route | VIPPA DCT LINVI L39 GOLUM DCT UPGAS DCT TIPAN DCT WECOW DCT BINBO DCT AKOKO N866 BUKUT P7 BARMI |
| Aircraft | A319/M-SDE3FGHIRWY/LB1 |
Departure
| Time | 2026-05-07 20:24 |
|---|---|
| Airport | Oslo-Gardermoen International Airport (ENGM) |
Arrival
| Time | 2026-05-07 22:20 |
|---|---|
| Airport | London Heathrow Airport (EGLL) |
| Time | Latitude | Longitude | Altitude | Speed | Heading |
|---|---|---|---|---|---|
| 2026-05-07 19:51 | 60.19444 | 11.10235 | 685 ft | 0 kts | 196° |
| 2026-05-07 20:10 | 60.19460 | 11.10244 | 681 ft | 4 kts | 196° |
| 2026-05-07 20:11 | 60.19486 | 11.10259 | 680 ft | 4 kts | 196° |
| 2026-05-07 20:11 | 60.19506 | 11.10271 | 684 ft | 4 kts | 208° |
| 2026-05-07 20:11 | 60.19520 | 11.10299 | 681 ft | 3 kts | 241° |
| 2026-05-07 20:11 | 60.19533 | 11.10346 | 678 ft | 4 kts | 241° |
| 2026-05-07 20:12 | 60.19541 | 11.10375 | 677 ft | 0 kts | 240° |
| 2026-05-07 20:17 | 60.19541 | 11.10372 | 681 ft | 2 kts | 241° |
| 2026-05-07 20:17 | 60.19520 | 11.10391 | 679 ft | 6 kts | 99° |
| 2026-05-07 20:18 | 60.19522 | 11.10518 | 683 ft | 12 kts | 102° |
| 2026-05-07 20:18 | 60.19492 | 11.10729 | 682 ft | 19 kts | 105° |
| 2026-05-07 20:18 | 60.19450 | 11.11030 | 681 ft | 26 kts | 106° |
| 2026-05-07 20:18 | 60.19422 | 11.11239 | 683 ft | 10 kts | 86° |
| 2026-05-07 20:19 | 60.19493 | 11.11322 | 682 ft | 16 kts | 15° |
| 2026-05-07 20:19 | 60.19619 | 11.11394 | 683 ft | 22 kts | 15° |
| 2026-05-07 20:19 | 60.19784 | 11.11491 | 684 ft | 28 kts | 16° |
| 2026-05-07 20:19 | 60.19988 | 11.11609 | 686 ft | 31 kts | 16° |
| 2026-05-07 20:20 | 60.20125 | 11.11687 | 687 ft | 15 kts | 16° |
| 2026-05-07 20:20 | 60.20162 | 11.11885 | 686 ft | 21 kts | 105° |
| 2026-05-07 20:20 | 60.20122 | 11.12154 | 687 ft | 13 kts | 109° |
| 2026-05-07 20:20 | 60.20072 | 11.12222 | 685 ft | 9 kts | 194° |
| 2026-05-07 20:21 | 60.20067 | 11.12218 | 690 ft | 0 kts | 197° |
| 2026-05-07 20:23 | 60.20066 | 11.12218 | 690 ft | 0 kts | 197° |
| 2026-05-07 20:23 | 60.20027 | 11.12191 | 689 ft | 27 kts | 200° |
| 2026-05-07 20:24 | 60.19595 | 11.11946 | 684 ft | 99 kts | 195° |
| 2026-05-07 20:24 | 60.18732 | 11.11452 | 684 ft | 156 kts | 195° |
| 2026-05-07 20:24 | 60.17632 | 11.10841 | 1188 ft | 164 kts | 194° |
| 2026-05-07 20:24 | 60.16538 | 11.10219 | 1933 ft | 164 kts | 195° |
| 2026-05-07 20:25 | 60.15388 | 11.09551 | 2382 ft | 183 kts | 195° |
| 2026-05-07 20:25 | 60.14105 | 11.08806 | 2754 ft | 206 kts | 195° |
| 2026-05-07 20:25 | 60.12642 | 11.08162 | 3210 ft | 227 kts | 187° |
| 2026-05-07 20:25 | 60.11040 | 11.07781 | 4013 ft | 235 kts | 186° |
| 2026-05-07 20:26 | 60.09386 | 11.07421 | 4840 ft | 248 kts | 186° |
| 2026-05-07 20:26 | 60.07615 | 11.07039 | 5642 ft | 261 kts | 186° |
| 2026-05-07 20:26 | 60.05793 | 11.06561 | 6646 ft | 268 kts | 193° |
| 2026-05-07 20:26 | 60.04017 | 11.05359 | 7626 ft | 271 kts | 200° |
| 2026-05-07 20:27 | 60.02331 | 11.03633 | 8642 ft | 274 kts | 216° |
| 2026-05-07 20:27 | 60.00789 | 11.01380 | 9706 ft | 276 kts | 217° |
| 2026-05-07 20:27 | 59.99249 | 10.99113 | 10484 ft | 287 kts | 218° |
| 2026-05-07 20:27 | 59.97577 | 10.96646 | 10872 ft | 309 kts | 218° |
| 2026-05-07 20:28 | 59.95818 | 10.94066 | 11565 ft | 317 kts | 218° |
| 2026-05-07 20:28 | 59.94025 | 10.91445 | 12419 ft | 322 kts | 218° |
| 2026-05-07 20:28 | 59.92208 | 10.88797 | 13271 ft | 326 kts | 219° |
| 2026-05-07 20:28 | 59.90368 | 10.86122 | 14098 ft | 329 kts | 219° |
| 2026-05-07 20:29 | 59.88505 | 10.83419 | 14835 ft | 333 kts | 219° |
| 2026-05-07 20:29 | 59.86625 | 10.80695 | 15574 ft | 336 kts | 219° |
| 2026-05-07 20:29 | 59.84753 | 10.77982 | 16315 ft | 339 kts | 219° |
| 2026-05-07 20:29 | 59.82839 | 10.75211 | 17065 ft | 342 kts | 219° |
| 2026-05-07 20:30 | 59.80905 | 10.72414 | 17806 ft | 345 kts | 219° |
| 2026-05-07 20:30 | 59.78954 | 10.69592 | 18521 ft | 349 kts | 220° |
| 2026-05-07 20:30 | 59.76986 | 10.66742 | 19140 ft | 352 kts | 220° |
| 2026-05-07 20:30 | 59.74996 | 10.63866 | 19760 ft | 355 kts | 220° |
| 2026-05-07 20:31 | 59.72986 | 10.60966 | 20350 ft | 360 kts | 220° |
| 2026-05-07 20:31 | 59.70954 | 10.58038 | 20970 ft | 363 kts | 220° |
| 2026-05-07 20:31 | 59.68892 | 10.55085 | 21578 ft | 367 kts | 220° |
| 2026-05-07 20:31 | 59.66841 | 10.52159 | 22162 ft | 371 kts | 220° |
| 2026-05-07 20:32 | 59.64739 | 10.49162 | 22760 ft | 374 kts | 220° |
| 2026-05-07 20:32 | 59.62617 | 10.46131 | 23370 ft | 378 kts | 220° |
| 2026-05-07 20:32 | 59.60475 | 10.43079 | 23913 ft | 381 kts | 221° |
| 2026-05-07 20:32 | 59.58317 | 10.40010 | 24401 ft | 384 kts | 221° |
| 2026-05-07 20:33 | 59.56143 | 10.36926 | 24898 ft | 386 kts | 221° |
| 2026-05-07 20:33 | 59.53956 | 10.33825 | 25378 ft | 388 kts | 221° |
| 2026-05-07 20:33 | 59.51756 | 10.30707 | 25871 ft | 391 kts | 221° |
| 2026-05-07 20:33 | 59.49575 | 10.27624 | 26355 ft | 393 kts | 221° |
| 2026-05-07 20:34 | 59.47347 | 10.24481 | 26794 ft | 395 kts | 220° |
| 2026-05-07 20:34 | 59.45103 | 10.21326 | 27259 ft | 398 kts | 220° |
| 2026-05-07 20:34 | 59.42844 | 10.18151 | 27734 ft | 400 kts | 220° |
| 2026-05-07 20:34 | 59.40572 | 10.14957 | 28201 ft | 403 kts | 220° |
| 2026-05-07 20:35 | 59.38286 | 10.11750 | 28681 ft | 405 kts | 220° |
| 2026-05-07 20:35 | 59.35985 | 10.08529 | 29143 ft | 408 kts | 220° |
| 2026-05-07 20:35 | 59.33668 | 10.05292 | 29598 ft | 410 kts | 220° |
| 2026-05-07 20:35 | 59.31368 | 10.02091 | 30044 ft | 412 kts | 220° |
| 2026-05-07 20:36 | 59.29024 | 9.98830 | 30435 ft | 415 kts | 220° |
| 2026-05-07 20:36 | 59.26666 | 9.95555 | 30790 ft | 417 kts | 220° |
| 2026-05-07 20:36 | 59.24291 | 9.92259 | 31135 ft | 419 kts | 220° |
| 2026-05-07 20:36 | 59.21908 | 9.88952 | 31441 ft | 422 kts | 220° |
| 2026-05-07 20:37 | 59.19501 | 9.85622 | 31733 ft | 426 kts | 219° |
| 2026-05-07 20:37 | 59.17079 | 9.82286 | 32144 ft | 426 kts | 219° |
| 2026-05-07 20:37 | 59.14695 | 9.79007 | 32616 ft | 424 kts | 219° |
| 2026-05-07 20:37 | 59.12286 | 9.75699 | 33091 ft | 423 kts | 219° |
| 2026-05-07 20:38 | 59.09881 | 9.72399 | 33580 ft | 422 kts | 219° |
| 2026-05-07 20:38 | 59.07484 | 9.69110 | 34073 ft | 421 kts | 219° |
| 2026-05-07 20:38 | 59.05094 | 9.65833 | 34491 ft | 420 kts | 219° |
| 2026-05-07 20:38 | 59.02702 | 9.62561 | 34889 ft | 420 kts | 219° |
| 2026-05-07 20:39 | 59.00316 | 9.59309 | 35266 ft | 420 kts | 219° |
| 2026-05-07 20:39 | 58.97925 | 9.56059 | 35655 ft | 419 kts | 219° |
| 2026-05-07 20:39 | 58.95541 | 9.52826 | 36016 ft | 418 kts | 218° |
| 2026-05-07 20:39 | 58.93156 | 9.49587 | 36334 ft | 419 kts | 218° |
| 2026-05-07 20:40 | 58.90800 | 9.46402 | 36668 ft | 419 kts | 218° |
| 2026-05-07 20:40 | 58.88410 | 9.43179 | 37005 ft | 419 kts | 218° |
| 2026-05-07 20:40 | 58.86021 | 9.39956 | 37334 ft | 418 kts | 218° |
| 2026-05-07 20:40 | 58.83633 | 9.36740 | 37659 ft | 418 kts | 217° |
| 2026-05-07 20:41 | 58.81248 | 9.33534 | 37982 ft | 418 kts | 217° |
| 2026-05-07 20:41 | 58.78862 | 9.30328 | 38145 ft | 419 kts | 217° |
| 2026-05-07 20:41 | 58.76468 | 9.27120 | 38173 ft | 419 kts | 217° |
| 2026-05-07 20:42 | 58.71725 | 9.20764 | 38173 ft | 418 kts | 217° |
| 2026-05-07 20:42 | 58.66933 | 9.14386 | 38172 ft | 420 kts | 217° |
| 2026-05-07 20:43 | 58.62130 | 9.08005 | 38168 ft | 420 kts | 217° |
| 2026-05-07 20:43 | 58.57321 | 9.01656 | 38170 ft | 420 kts | 217° |
| 2026-05-07 20:44 | 58.52541 | 8.95352 | 38170 ft | 420 kts | 217° |
| 2026-05-07 20:44 | 58.47729 | 8.89027 | 38171 ft | 420 kts | 217° |
| 2026-05-07 20:45 | 58.42908 | 8.82723 | 38169 ft | 420 kts | 217° |
| 2026-05-07 20:45 | 58.38085 | 8.76429 | 38170 ft | 420 kts | 216° |
| 2026-05-07 20:46 | 58.33261 | 8.70144 | 38183 ft | 420 kts | 216° |
| 2026-05-07 20:46 | 58.28473 | 8.63931 | 38185 ft | 419 kts | 216° |
| 2026-05-07 20:47 | 58.23649 | 8.57690 | 38184 ft | 419 kts | 216° |
| 2026-05-07 20:47 | 58.18832 | 8.51469 | 38159 ft | 419 kts | 216° |
| 2026-05-07 20:48 | 58.14005 | 8.45270 | 38160 ft | 419 kts | 216° |
| 2026-05-07 20:48 | 58.09199 | 8.39129 | 38156 ft | 420 kts | 216° |
| 2026-05-07 20:49 | 58.04351 | 8.32977 | 38160 ft | 420 kts | 216° |
| 2026-05-07 20:49 | 57.99508 | 8.26819 | 38162 ft | 420 kts | 216° |
| 2026-05-07 20:50 | 57.94665 | 8.20660 | 38160 ft | 420 kts | 216° |
| 2026-05-07 20:50 | 57.89941 | 8.14685 | 38147 ft | 420 kts | 215° |
| 2026-05-07 20:51 | 57.85079 | 8.08566 | 38145 ft | 421 kts | 215° |
| 2026-05-07 20:51 | 57.80214 | 8.02472 | 38149 ft | 421 kts | 215° |
| 2026-05-07 20:52 | 57.75369 | 7.96425 | 38154 ft | 421 kts | 215° |
| 2026-05-07 20:52 | 57.70494 | 7.90347 | 38155 ft | 421 kts | 215° |
| 2026-05-07 20:53 | 57.65616 | 7.84286 | 38146 ft | 421 kts | 215° |
| 2026-05-07 20:53 | 57.60731 | 7.78252 | 38148 ft | 421 kts | 215° |
| 2026-05-07 20:54 | 57.55875 | 7.72253 | 38151 ft | 421 kts | 215° |
| 2026-05-07 20:54 | 57.50984 | 7.66232 | 38151 ft | 421 kts | 214° |
| 2026-05-07 20:55 | 57.46088 | 7.60234 | 38151 ft | 421 kts | 214° |
| 2026-05-07 20:55 | 57.41192 | 7.54249 | 38137 ft | 422 kts | 214° |
| 2026-05-07 20:56 | 57.36285 | 7.48278 | 38140 ft | 422 kts | 214° |
| 2026-05-07 20:56 | 57.31401 | 7.42351 | 38143 ft | 423 kts | 214° |
| 2026-05-07 20:57 | 57.26478 | 7.36391 | 38145 ft | 423 kts | 214° |
| 2026-05-07 20:57 | 57.21549 | 7.30444 | 38149 ft | 423 kts | 214° |
| 2026-05-07 20:58 | 57.16615 | 7.24513 | 38134 ft | 424 kts | 213° |
| 2026-05-07 20:58 | 57.11707 | 7.18636 | 38142 ft | 424 kts | 213° |
| 2026-05-07 20:59 | 57.06754 | 7.12716 | 38146 ft | 425 kts | 213° |
| 2026-05-07 20:59 | 57.01794 | 7.06810 | 38162 ft | 425 kts | 213° |
| 2026-05-07 21:00 | 56.96830 | 7.00923 | 38166 ft | 425 kts | 213° |
| 2026-05-07 21:00 | 56.91900 | 6.95086 | 38168 ft | 425 kts | 213° |
| 2026-05-07 21:01 | 56.86941 | 6.89237 | 38157 ft | 425 kts | 213° |
| 2026-05-07 21:01 | 56.81965 | 6.83395 | 38159 ft | 425 kts | 213° |
| 2026-05-07 21:02 | 56.76991 | 6.77573 | 38160 ft | 426 kts | 213° |
| 2026-05-07 21:02 | 56.72034 | 6.71789 | 38156 ft | 426 kts | 213° |
| 2026-05-07 21:03 | 56.67040 | 6.65978 | 38161 ft | 426 kts | 213° |
| 2026-05-07 21:03 | 56.62045 | 6.60174 | 38152 ft | 426 kts | 213° |
| 2026-05-07 21:04 | 56.57041 | 6.54382 | 38151 ft | 427 kts | 213° |
| 2026-05-07 21:04 | 56.52027 | 6.48606 | 38154 ft | 427 kts | 213° |
| 2026-05-07 21:05 | 56.47048 | 6.42870 | 38154 ft | 427 kts | 213° |
| 2026-05-07 21:05 | 56.42031 | 6.37121 | 38157 ft | 427 kts | 212° |
| 2026-05-07 21:06 | 56.37009 | 6.31387 | 38161 ft | 427 kts | 212° |
| 2026-05-07 21:06 | 56.31981 | 6.25665 | 38156 ft | 428 kts | 212° |
| 2026-05-07 21:07 | 56.26982 | 6.19984 | 38154 ft | 428 kts | 212° |
| 2026-05-07 21:07 | 56.21946 | 6.14283 | 38157 ft | 428 kts | 212° |
| 2026-05-07 21:08 | 56.16903 | 6.08593 | 38161 ft | 428 kts | 212° |
| 2026-05-07 21:08 | 56.11855 | 6.02910 | 38156 ft | 428 kts | 212° |
| 2026-05-07 21:09 | 56.06837 | 5.97289 | 38151 ft | 429 kts | 212° |
| 2026-05-07 21:09 | 56.01774 | 5.91648 | 38158 ft | 429 kts | 212° |
| 2026-05-07 21:10 | 55.96711 | 5.86015 | 38169 ft | 429 kts | 212° |
| 2026-05-07 21:10 | 55.91650 | 5.80398 | 38170 ft | 428 kts | 212° |
| 2026-05-07 21:11 | 55.86586 | 5.74785 | 38157 ft | 429 kts | 211° |
| 2026-05-07 21:11 | 55.79020 | 5.66444 | 38165 ft | 428 kts | 211° |
| 2026-05-07 21:12 | 55.73952 | 5.60867 | 38168 ft | 428 kts | 211° |
| 2026-05-07 21:12 | 55.68875 | 5.55316 | 38176 ft | 429 kts | 211° |
| 2026-05-07 21:13 | 55.63832 | 5.49821 | 38167 ft | 428 kts | 211° |
| 2026-05-07 21:13 | 55.58760 | 5.44301 | 38168 ft | 428 kts | 211° |
| 2026-05-07 21:14 | 55.53688 | 5.38782 | 38160 ft | 428 kts | 211° |
| 2026-05-07 21:14 | 55.48609 | 5.33292 | 38170 ft | 428 kts | 211° |
| 2026-05-07 21:15 | 55.43561 | 5.27855 | 38157 ft | 428 kts | 211° |
| 2026-05-07 21:15 | 55.38479 | 5.22391 | 38163 ft | 428 kts | 211° |
| 2026-05-07 21:16 | 55.33458 | 5.17003 | 38156 ft | 428 kts | 211° |
| 2026-05-07 21:16 | 55.28370 | 5.11567 | 38162 ft | 428 kts | 211° |
| 2026-05-07 21:17 | 55.23312 | 5.06177 | 38153 ft | 428 kts | 211° |
| 2026-05-07 21:17 | 55.18220 | 5.00754 | 38156 ft | 428 kts | 211° |
| 2026-05-07 21:18 | 55.13125 | 4.95360 | 38161 ft | 428 kts | 211° |
| 2026-05-07 21:18 | 55.08024 | 4.89984 | 38151 ft | 429 kts | 211° |
| 2026-05-07 21:19 | 55.02950 | 4.84647 | 38160 ft | 429 kts | 211° |
| 2026-05-07 21:19 | 54.97838 | 4.79282 | 38145 ft | 429 kts | 211° |
| 2026-05-07 21:20 | 54.92716 | 4.73930 | 38148 ft | 429 kts | 211° |
| 2026-05-07 21:20 | 54.87595 | 4.68594 | 38148 ft | 429 kts | 211° |
| 2026-05-07 21:21 | 54.82507 | 4.63288 | 38157 ft | 429 kts | 211° |
| 2026-05-07 21:21 | 54.77382 | 4.57969 | 38151 ft | 430 kts | 210° |
| 2026-05-07 21:22 | 54.72248 | 4.52670 | 38149 ft | 430 kts | 210° |
| 2026-05-07 21:22 | 54.67115 | 4.47380 | 38150 ft | 430 kts | 210° |
| 2026-05-07 21:23 | 54.62008 | 4.42135 | 38139 ft | 430 kts | 210° |
| 2026-05-07 21:23 | 54.56829 | 4.36974 | 38149 ft | 430 kts | 208° |
| 2026-05-07 21:24 | 54.51527 | 4.32182 | 38150 ft | 430 kts | 207° |
| 2026-05-07 21:24 | 54.46199 | 4.27477 | 38154 ft | 431 kts | 207° |
| 2026-05-07 21:25 | 54.40925 | 4.22746 | 38155 ft | 430 kts | 207° |
| 2026-05-07 21:25 | 54.35630 | 4.17956 | 38152 ft | 430 kts | 207° |
| 2026-05-07 21:26 | 54.30343 | 4.13189 | 38142 ft | 430 kts | 207° |
| 2026-05-07 21:26 | 54.25049 | 4.08432 | 38138 ft | 430 kts | 207° |
| 2026-05-07 21:27 | 54.19745 | 4.03691 | 38149 ft | 430 kts | 207° |
| 2026-05-07 21:27 | 54.14478 | 3.98999 | 38143 ft | 430 kts | 207° |
| 2026-05-07 21:28 | 54.09166 | 3.94283 | 38154 ft | 430 kts | 207° |
| 2026-05-07 21:28 | 54.03853 | 3.89586 | 38141 ft | 430 kts | 207° |
| 2026-05-07 21:29 | 53.98540 | 3.84885 | 38145 ft | 430 kts | 207° |
| 2026-05-07 21:29 | 53.93266 | 3.80220 | 38137 ft | 430 kts | 208° |
| 2026-05-07 21:30 | 53.87955 | 3.75552 | 38148 ft | 430 kts | 207° |
| 2026-05-07 21:30 | 53.82640 | 3.70905 | 38149 ft | 430 kts | 207° |
| 2026-05-07 21:31 | 53.77325 | 3.66262 | 38146 ft | 430 kts | 207° |
| 2026-05-07 21:31 | 53.72047 | 3.61666 | 38145 ft | 430 kts | 207° |
| 2026-05-07 21:32 | 53.66730 | 3.57043 | 38149 ft | 430 kts | 208° |
| 2026-05-07 21:32 | 53.61419 | 3.52431 | 38142 ft | 429 kts | 207° |
| 2026-05-07 21:33 | 53.56106 | 3.47831 | 38145 ft | 429 kts | 207° |
| 2026-05-07 21:33 | 53.50828 | 3.43282 | 38151 ft | 429 kts | 207° |
| 2026-05-07 21:34 | 53.45507 | 3.38727 | 38141 ft | 429 kts | 207° |
| 2026-05-07 21:34 | 53.40187 | 3.34187 | 38133 ft | 429 kts | 207° |
| 2026-05-07 21:35 | 53.34874 | 3.29635 | 38141 ft | 429 kts | 207° |
| 2026-05-07 21:35 | 53.29591 | 3.25128 | 38118 ft | 429 kts | 207° |
| 2026-05-07 21:36 | 53.24269 | 3.20618 | 38126 ft | 429 kts | 207° |
| 2026-05-07 21:36 | 53.18945 | 3.16113 | 38114 ft | 429 kts | 207° |
| 2026-05-07 21:37 | 53.13620 | 3.11618 | 38127 ft | 429 kts | 207° |
| 2026-05-07 21:37 | 53.08331 | 3.07161 | 38118 ft | 429 kts | 207° |
| 2026-05-07 21:38 | 53.03007 | 3.02681 | 38133 ft | 429 kts | 207° |
| 2026-05-07 21:38 | 52.97675 | 2.98218 | 37845 ft | 429 kts | 207° |
| 2026-05-07 21:39 | 52.95013 | 2.95997 | 37557 ft | 428 kts | 207° |
| 2026-05-07 21:39 | 52.92352 | 2.93776 | 37298 ft | 428 kts | 207° |
| 2026-05-07 21:39 | 52.89732 | 2.91589 | 37036 ft | 428 kts | 207° |
| 2026-05-07 21:39 | 52.87075 | 2.89375 | 36777 ft | 428 kts | 207° |
| 2026-05-07 21:40 | 52.84415 | 2.87160 | 36521 ft | 428 kts | 207° |
| 2026-05-07 21:40 | 52.81760 | 2.84953 | 36266 ft | 427 kts | 207° |
| 2026-05-07 21:40 | 52.79100 | 2.82752 | 36010 ft | 427 kts | 207° |
| 2026-05-07 21:40 | 52.76439 | 2.80557 | 35475 ft | 427 kts | 207° |
| 2026-05-07 21:41 | 52.73796 | 2.78376 | 35047 ft | 423 kts | 207° |
| 2026-05-07 21:41 | 52.71206 | 2.76235 | 34565 ft | 421 kts | 208° |
| 2026-05-07 21:41 | 52.68595 | 2.74080 | 34079 ft | 418 kts | 208° |
| 2026-05-07 21:41 | 52.66002 | 2.71939 | 33543 ft | 415 kts | 208° |
| 2026-05-07 21:42 | 52.63433 | 2.69822 | 33064 ft | 411 kts | 208° |
| 2026-05-07 21:42 | 52.60889 | 2.67730 | 32572 ft | 407 kts | 208° |
| 2026-05-07 21:42 | 52.58370 | 2.65663 | 32093 ft | 403 kts | 208° |
| 2026-05-07 21:42 | 52.55872 | 2.63619 | 31621 ft | 399 kts | 208° |
| 2026-05-07 21:43 | 52.53397 | 2.61601 | 31153 ft | 395 kts | 208° |
| 2026-05-07 21:43 | 52.50974 | 2.59629 | 30704 ft | 392 kts | 208° |
| 2026-05-07 21:43 | 52.48545 | 2.57646 | 30241 ft | 388 kts | 208° |
| 2026-05-07 21:43 | 52.46142 | 2.55685 | 29903 ft | 382 kts | 208° |
| 2026-05-07 21:44 | 52.43766 | 2.53750 | 29801 ft | 380 kts | 208° |
| 2026-05-07 21:44 | 52.41399 | 2.51826 | 29703 ft | 379 kts | 208° |
| 2026-05-07 21:44 | 52.39037 | 2.49906 | 29597 ft | 379 kts | 208° |
| 2026-05-07 21:44 | 52.36680 | 2.47990 | 29453 ft | 378 kts | 208° |
| 2026-05-07 21:45 | 52.34326 | 2.46080 | 29313 ft | 377 kts | 209° |
| 2026-05-07 21:45 | 52.31977 | 2.44178 | 29180 ft | 376 kts | 209° |
| 2026-05-07 21:45 | 52.29663 | 2.42309 | 29040 ft | 376 kts | 208° |
| 2026-05-07 21:45 | 52.27321 | 2.40427 | 28904 ft | 375 kts | 208° |
| 2026-05-07 21:46 | 52.24982 | 2.38549 | 28755 ft | 374 kts | 209° |
| 2026-05-07 21:46 | 52.22649 | 2.36672 | 28630 ft | 373 kts | 209° |
| 2026-05-07 21:46 | 52.20322 | 2.34798 | 28495 ft | 372 kts | 209° |
| 2026-05-07 21:46 | 52.18001 | 2.32933 | 28366 ft | 372 kts | 209° |
| 2026-05-07 21:47 | 52.15684 | 2.31072 | 28226 ft | 371 kts | 209° |
| 2026-05-07 21:47 | 52.13372 | 2.29217 | 28096 ft | 370 kts | 209° |
| 2026-05-07 21:47 | 52.11184 | 2.27161 | 27958 ft | 367 kts | 218° |
| 2026-05-07 21:47 | 52.09253 | 2.24488 | 27826 ft | 363 kts | 228° |
| 2026-05-07 21:48 | 52.07579 | 2.21422 | 27697 ft | 362 kts | 231° |
| 2026-05-07 21:48 | 52.05923 | 2.18337 | 27565 ft | 362 kts | 230° |
| 2026-05-07 21:48 | 52.04267 | 2.15263 | 27431 ft | 361 kts | 230° |
| 2026-05-07 21:48 | 52.02612 | 2.12199 | 27292 ft | 361 kts | 230° |
| 2026-05-07 21:49 | 52.00957 | 2.09140 | 27174 ft | 360 kts | 230° |
| 2026-05-07 21:49 | 51.99303 | 2.06092 | 27033 ft | 360 kts | 230° |
| 2026-05-07 21:49 | 51.97672 | 2.03091 | 26909 ft | 359 kts | 230° |
| 2026-05-07 21:49 | 51.96023 | 2.00054 | 26782 ft | 359 kts | 230° |
| 2026-05-07 21:50 | 51.94376 | 1.97022 | 26644 ft | 358 kts | 230° |
| 2026-05-07 21:50 | 51.92733 | 1.94001 | 26524 ft | 357 kts | 230° |
| 2026-05-07 21:50 | 51.91089 | 1.90983 | 26390 ft | 357 kts | 230° |
| 2026-05-07 21:50 | 51.89450 | 1.87981 | 26261 ft | 356 kts | 230° |
| 2026-05-07 21:51 | 51.87808 | 1.84980 | 26127 ft | 355 kts | 230° |
| 2026-05-07 21:51 | 51.86194 | 1.82026 | 25998 ft | 355 kts | 230° |
| 2026-05-07 21:51 | 51.84562 | 1.79039 | 25874 ft | 354 kts | 230° |
| 2026-05-07 21:51 | 51.82933 | 1.76058 | 25742 ft | 354 kts | 230° |
| 2026-05-07 21:52 | 51.81304 | 1.73085 | 25612 ft | 353 kts | 230° |
| 2026-05-07 21:52 | 51.79676 | 1.70122 | 25475 ft | 353 kts | 230° |
| 2026-05-07 21:52 | 51.78047 | 1.67162 | 25362 ft | 353 kts | 229° |
| 2026-05-07 21:52 | 51.76472 | 1.64134 | 25222 ft | 352 kts | 236° |
| 2026-05-07 21:53 | 51.75277 | 1.60706 | 25102 ft | 351 kts | 247° |
| 2026-05-07 21:53 | 51.74530 | 1.56946 | 24575 ft | 356 kts | 258° |
| 2026-05-07 21:53 | 51.74243 | 1.53083 | 24036 ft | 358 kts | 264° |
| 2026-05-07 21:53 | 51.74006 | 1.49108 | 23472 ft | 359 kts | 263° |
| 2026-05-07 21:54 | 51.73751 | 1.45102 | 22902 ft | 358 kts | 263° |
| 2026-05-07 21:54 | 51.73488 | 1.41112 | 22359 ft | 356 kts | 263° |
| 2026-05-07 21:54 | 51.73226 | 1.37152 | 21825 ft | 354 kts | 263° |
| 2026-05-07 21:54 | 51.72968 | 1.33215 | 21296 ft | 352 kts | 263° |
| 2026-05-07 21:55 | 51.72709 | 1.29304 | 20768 ft | 350 kts | 263° |
| 2026-05-07 21:55 | 51.72454 | 1.25470 | 20252 ft | 347 kts | 263° |
| 2026-05-07 21:55 | 51.72196 | 1.21610 | 19731 ft | 346 kts | 263° |
| 2026-05-07 21:55 | 51.71940 | 1.17765 | 19214 ft | 344 kts | 263° |
| 2026-05-07 21:56 | 51.71683 | 1.13941 | 18697 ft | 342 kts | 263° |
| 2026-05-07 21:56 | 51.71424 | 1.10135 | 18154 ft | 341 kts | 262° |
| 2026-05-07 21:56 | 51.71168 | 1.06354 | 17622 ft | 338 kts | 262° |
| 2026-05-07 21:56 | 51.70913 | 1.02611 | 17117 ft | 335 kts | 262° |
| 2026-05-07 21:57 | 51.70658 | 0.98895 | 16614 ft | 332 kts | 262° |
| 2026-05-07 21:57 | 51.70405 | 0.95214 | 16121 ft | 329 kts | 262° |
| 2026-05-07 21:57 | 51.70159 | 0.91611 | 15671 ft | 326 kts | 262° |
| 2026-05-07 21:57 | 51.69910 | 0.88000 | 15224 ft | 323 kts | 262° |
| 2026-05-07 21:58 | 51.69661 | 0.84419 | 14786 ft | 320 kts | 262° |
| 2026-05-07 21:58 | 51.69412 | 0.80867 | 14310 ft | 319 kts | 262° |
| 2026-05-07 21:58 | 51.69160 | 0.77320 | 13828 ft | 318 kts | 262° |
| 2026-05-07 21:58 | 51.68909 | 0.73795 | 13339 ft | 315 kts | 262° |
| 2026-05-07 21:59 | 51.68660 | 0.70303 | 12901 ft | 312 kts | 262° |
| 2026-05-07 21:59 | 51.68417 | 0.66892 | 12478 ft | 309 kts | 262° |
| 2026-05-07 21:59 | 51.68174 | 0.63473 | 12041 ft | 306 kts | 262° |
| 2026-05-07 21:59 | 51.67931 | 0.60081 | 11629 ft | 302 kts | 262° |
| 2026-05-07 22:00 | 51.67691 | 0.56766 | 11218 ft | 294 kts | 262° |
| 2026-05-07 22:00 | 51.67456 | 0.53536 | 10821 ft | 287 kts | 262° |
| 2026-05-07 22:00 | 51.67224 | 0.50359 | 10427 ft | 284 kts | 262° |
| 2026-05-07 22:00 | 51.66994 | 0.47214 | 10038 ft | 281 kts | 263° |
| 2026-05-07 22:01 | 51.66763 | 0.44110 | 9623 ft | 278 kts | 263° |
| 2026-05-07 22:01 | 51.66610 | 0.42065 | 9367 ft | 277 kts | 263° |
| 2026-05-07 22:01 | 51.66381 | 0.38991 | 8977 ft | 276 kts | 263° |
| 2026-05-07 22:01 | 51.66080 | 0.34942 | 8468 ft | 275 kts | 263° |
| 2026-05-07 22:02 | 51.65856 | 0.31893 | 8090 ft | 273 kts | 263° |
| 2026-05-07 22:02 | 51.65631 | 0.28854 | 7715 ft | 273 kts | 262° |
| 2026-05-07 22:02 | 51.65403 | 0.25820 | 7352 ft | 272 kts | 263° |
| 2026-05-07 22:02 | 51.65174 | 0.22818 | 7284 ft | 271 kts | 263° |
| 2026-05-07 22:03 | 51.64944 | 0.19799 | 7176 ft | 267 kts | 262° |
| 2026-05-07 22:03 | 51.64796 | 0.17860 | 7098 ft | 260 kts | 262° |
| 2026-05-07 22:03 | 51.64515 | 0.14125 | 6998 ft | 246 kts | 263° |
| 2026-05-07 22:03 | 51.64356 | 0.11423 | 7004 ft | 241 kts | 264° |
| 2026-05-07 22:04 | 51.64218 | 0.08740 | 7005 ft | 240 kts | 264° |
| 2026-05-07 22:04 | 51.64082 | 0.06070 | 7005 ft | 240 kts | 265° |
| 2026-05-07 22:04 | 51.63943 | 0.03390 | 7006 ft | 240 kts | 264° |
| 2026-05-07 22:04 | 51.63802 | 0.00712 | 7006 ft | 240 kts | 264° |
| 2026-05-07 22:05 | 51.63708 | -0.01057 | 6989 ft | 240 kts | 264° |
| 2026-05-07 22:05 | 51.63563 | -0.03730 | 6974 ft | 239 kts | 265° |
| 2026-05-07 22:05 | 51.63367 | -0.07267 | 6984 ft | 239 kts | 264° |
| 2026-05-07 22:05 | 51.63216 | -0.09933 | 6979 ft | 239 kts | 264° |
| 2026-05-07 22:06 | 51.63063 | -0.12593 | 6984 ft | 239 kts | 264° |
| 2026-05-07 22:06 | 51.62913 | -0.15220 | 6980 ft | 229 kts | 264° |
| 2026-05-07 22:06 | 51.62819 | -0.16877 | 6983 ft | 222 kts | 264° |
| 2026-05-07 22:06 | 51.62678 | -0.19316 | 6986 ft | 218 kts | 264° |
| 2026-05-07 22:07 | 51.62538 | -0.21750 | 6981 ft | 218 kts | 264° |
| 2026-05-07 22:07 | 51.62398 | -0.24180 | 6984 ft | 218 kts | 264° |
| 2026-05-07 22:07 | 51.62255 | -0.26612 | 6984 ft | 218 kts | 264° |
| 2026-05-07 22:07 | 51.62067 | -0.29825 | 6985 ft | 217 kts | 264° |
| 2026-05-07 22:08 | 51.61928 | -0.32250 | 6984 ft | 218 kts | 264° |
| 2026-05-07 22:08 | 51.61834 | -0.33889 | 6979 ft | 218 kts | 264° |
| 2026-05-07 22:08 | 51.61694 | -0.36283 | 6984 ft | 217 kts | 264° |
| 2026-05-07 22:08 | 51.61551 | -0.38702 | 6984 ft | 217 kts | 264° |
| 2026-05-07 22:09 | 51.61408 | -0.41123 | 6984 ft | 218 kts | 264° |
| 2026-05-07 22:09 | 51.61264 | -0.43544 | 6983 ft | 218 kts | 264° |
| 2026-05-07 22:09 | 51.61119 | -0.45971 | 6985 ft | 218 kts | 264° |
| 2026-05-07 22:09 | 51.60975 | -0.48393 | 6984 ft | 217 kts | 264° |
| 2026-05-07 22:10 | 51.60830 | -0.50821 | 6979 ft | 218 kts | 264° |
| 2026-05-07 22:10 | 51.60682 | -0.53248 | 6983 ft | 218 kts | 264° |
| 2026-05-07 22:10 | 51.60535 | -0.55636 | 6983 ft | 218 kts | 264° |
| 2026-05-07 22:10 | 51.60385 | -0.58065 | 6983 ft | 218 kts | 264° |
| 2026-05-07 22:11 | 51.60235 | -0.60488 | 6986 ft | 218 kts | 264° |
| 2026-05-07 22:11 | 51.60086 | -0.62914 | 6985 ft | 218 kts | 264° |
| 2026-05-07 22:11 | 51.59936 | -0.65337 | 6977 ft | 218 kts | 264° |
| 2026-05-07 22:11 | 51.59784 | -0.67771 | 6717 ft | 218 kts | 264° |
| 2026-05-07 22:12 | 51.59631 | -0.70190 | 6469 ft | 218 kts | 264° |
| 2026-05-07 22:12 | 51.59478 | -0.72623 | 6227 ft | 218 kts | 264° |
| 2026-05-07 22:12 | 51.59329 | -0.75052 | 6000 ft | 219 kts | 263° |
| 2026-05-07 22:12 | 51.58913 | -0.77346 | 5710 ft | 217 kts | 238° |
| 2026-05-07 22:13 | 51.57857 | -0.79008 | 5389 ft | 212 kts | 207° |
| 2026-05-07 22:13 | 51.56470 | -0.79628 | 5099 ft | 206 kts | 180° |
| 2026-05-07 22:13 | 51.55043 | -0.79556 | 4807 ft | 204 kts | 176° |
| 2026-05-07 22:13 | 51.53635 | -0.79476 | 4495 ft | 202 kts | 176° |
| 2026-05-07 22:14 | 51.52238 | -0.79399 | 4222 ft | 200 kts | 176° |
| 2026-05-07 22:14 | 51.50854 | -0.79324 | 3939 ft | 198 kts | 176° |
| 2026-05-07 22:14 | 51.49507 | -0.79253 | 3695 ft | 194 kts | 176° |
| 2026-05-07 22:14 | 51.48221 | -0.78832 | 3444 ft | 187 kts | 145° |
| 2026-05-07 22:15 | 51.47553 | -0.77166 | 3218 ft | 182 kts | 96° |
| 2026-05-07 22:15 | 51.47639 | -0.75153 | 3042 ft | 180 kts | 88° |
| 2026-05-07 22:15 | 51.47642 | -0.73152 | 2992 ft | 179 kts | 91° |
| 2026-05-07 22:15 | 51.47641 | -0.71155 | 2897 ft | 177 kts | 91° |
| 2026-05-07 22:16 | 51.47648 | -0.69231 | 2689 ft | 170 kts | 91° |
| 2026-05-07 22:16 | 51.47657 | -0.67365 | 2467 ft | 165 kts | 91° |
| 2026-05-07 22:16 | 51.47667 | -0.65590 | 2253 ft | 153 kts | 91° |
| 2026-05-07 22:16 | 51.47676 | -0.63952 | 2055 ft | 142 kts | 91° |
| 2026-05-07 22:17 | 51.47684 | -0.62410 | 1871 ft | 138 kts | 92° |
| 2026-05-07 22:17 | 51.47692 | -0.60932 | 1689 ft | 129 kts | 92° |
| 2026-05-07 22:17 | 51.47698 | -0.59516 | 1515 ft | 126 kts | 92° |
| 2026-05-07 22:17 | 51.47705 | -0.58119 | 1349 ft | 125 kts | 92° |
| 2026-05-07 22:18 | 51.47712 | -0.56730 | 1172 ft | 124 kts | 92° |
| 2026-05-07 22:18 | 51.47727 | -0.53962 | 823 ft | 124 kts | 91° |
| 2026-05-07 22:18 | 51.47734 | -0.52589 | 627 ft | 123 kts | 91° |
| 2026-05-07 22:19 | 51.47733 | -0.51249 | 478 ft | 121 kts | 91° |
| 2026-05-07 22:19 | 51.47745 | -0.49891 | 295 ft | 122 kts | 90° |
| 2026-05-07 22:19 | 51.47751 | -0.48540 | 149 ft | 121 kts | 91° |
| 2026-05-07 22:19 | 51.47752 | -0.47259 | 85 ft | 104 kts | 90° |
| 2026-05-07 22:20 | 51.47756 | -0.46319 | 89 ft | 68 kts | 90° |
| 2026-05-07 22:20 | 51.47758 | -0.45687 | 86 ft | 39 kts | 89° |
| 2026-05-07 22:20 | 51.47715 | -0.45477 | 87 ft | 19 kts | 159° |
| 2026-05-07 22:20 | 51.47595 | -0.45469 | 86 ft | 12 kts | 172° |
| 2026-05-07 22:21 | 51.47591 | -0.45382 | 87 ft | 9 kts | 61° |
| 2026-05-07 22:21 | 51.47598 | -0.45259 | 86 ft | 13 kts | 89° |
| 2026-05-07 22:21 | 51.47598 | -0.45098 | 86 ft | 16 kts | 90° |
| 2026-05-07 22:21 | 51.47599 | -0.44897 | 87 ft | 20 kts | 90° |
| 2026-05-07 22:22 | 51.47599 | -0.44722 | 87 ft | 9 kts | 91° |
| 2026-05-07 22:22 | 51.47546 | -0.44654 | 86 ft | 13 kts | 181° |
| 2026-05-07 22:22 | 51.47477 | -0.44565 | 88 ft | 14 kts | 154° |
| 2026-05-07 22:22 | 51.47365 | -0.44558 | 86 ft | 18 kts | 179° |
| 2026-05-07 22:23 | 51.47226 | -0.44556 | 86 ft | 22 kts | 180° |
| 2026-05-07 22:23 | 51.47057 | -0.44555 | 86 ft | 26 kts | 179° |
| 2026-05-07 22:23 | 51.46885 | -0.44554 | 86 ft | 19 kts | 180° |
| 2026-05-07 22:23 | 51.46779 | -0.44557 | 86 ft | 11 kts | 192° |
| 2026-05-07 22:24 | 51.46753 | -0.44673 | 86 ft | 14 kts | 271° |
| 2026-05-07 22:24 | 51.46751 | -0.44846 | 86 ft | 17 kts | 270° |
| 2026-05-07 22:24 | 51.46752 | -0.45013 | 86 ft | 7 kts | 270° |
| 2026-05-07 22:24 | 51.46758 | -0.45101 | 86 ft | 8 kts | 302° |
| 2026-05-07 22:25 | 51.46807 | -0.45111 | 86 ft | 6 kts | 357° |
| 2026-05-07 22:25 | 51.46823 | -0.45111 | 86 ft | 3 kts | 359° |
| 2026-05-07 22:25 | 51.46829 | -0.45111 | 86 ft | 0 kts | 360° |